createdAt,value
2023-04-22T00:00:45.894Z,12.00
2023-04-22T00:03:40.951Z,10.98
2023-04-22T00:06:38.669Z,11.82
2023-04-22T00:09:25.325Z,11.90
2023-04-22T00:12:05.374Z,11.30
2023-04-22T00:14:48.025Z,10.80
2023-04-22T00:17:26.785Z,10.45
2023-04-22T00:20:04.478Z,10.90
2023-04-22T00:22:46.041Z,10.90
2023-04-22T00:25:24.233Z,10.35
2023-04-22T00:28:01.321Z,10.43
2023-04-22T00:30:39.053Z,10.18
2023-04-22T00:33:23.820Z,10.55
2023-04-22T00:36:03.918Z,9.52
2023-04-22T00:38:45.816Z,9.93
2023-04-22T00:41:23.405Z,10.05
2023-04-22T00:44:04.646Z,9.45
2023-04-22T00:46:43.595Z,10.10
2023-04-22T00:49:24.075Z,10.05
2023-04-22T00:52:01.934Z,10.35
2023-04-22T00:54:39.362Z,10.07
2023-04-22T00:57:17.937Z,10.77
2023-04-22T00:59:54.863Z,9.90
2023-04-22T01:02:32.714Z,9.85
2023-04-22T01:05:12.703Z,10.07
2023-04-22T01:07:48.833Z,10.18
2023-04-22T01:10:29.119Z,10.38
2023-04-22T01:13:07.806Z,10.52
2023-04-22T01:15:47.021Z,10.13
2023-04-22T01:18:23.792Z,10.73
2023-04-22T01:21:06.121Z,10.43
2023-04-22T01:23:45.460Z,9.43
2023-04-22T01:26:23.893Z,10.10
2023-04-22T01:29:00.067Z,10.38
2023-04-22T01:31:37.491Z,10.27
2023-04-22T01:34:21.921Z,10.10
2023-04-22T01:36:58.281Z,9.98
2023-04-22T01:39:38.664Z,10.15
2023-04-22T01:42:18.094Z,10.13
2023-04-22T01:44:58.908Z,10.25
2023-04-22T01:47:36.008Z,10.05
2023-04-22T01:50:13.923Z,10.25
2023-04-22T01:52:50.367Z,10.32
2023-04-22T01:55:31.031Z,10.88
2023-04-22T01:58:09.946Z,10.70
2023-04-22T02:00:46.247Z,11.18
2023-04-22T02:03:25.608Z,10.43
2023-04-22T02:06:05.096Z,11.10
2023-04-22T02:08:44.375Z,10.80
2023-04-22T02:11:26.833Z,11.07
2023-04-22T02:14:09.438Z,11.57
2023-04-22T02:16:50.215Z,11.05
2023-04-22T02:19:28.414Z,10.65
2023-04-22T02:22:04.504Z,11.05
2023-04-22T02:24:43.418Z,11.20
2023-04-22T02:27:24.207Z,10.70
2023-04-22T02:30:01.036Z,11.93
2023-04-22T02:32:39.367Z,11.07
2023-04-22T02:35:15.525Z,11.20
2023-04-22T02:37:51.465Z,11.20
2023-04-22T02:40:31.427Z,11.98
2023-04-22T02:43:12.273Z,11.93
2023-04-22T02:45:48.766Z,12.45
2023-04-22T02:48:27.397Z,12.23
2023-04-22T02:51:04.337Z,11.88
2023-04-22T02:53:43.386Z,11.98
2023-04-22T02:56:21.807Z,11.63
2023-04-22T02:59:00.797Z,11.63
2023-04-22T03:01:38.335Z,11.57
2023-04-22T03:04:22.389Z,11.70
2023-04-22T03:06:58.928Z,12.77
2023-04-22T03:09:35.672Z,11.90
2023-04-22T03:12:11.591Z,12.05
2023-04-22T03:14:52.345Z,12.15
2023-04-22T03:17:30.162Z,12.07
2023-04-22T03:20:10.197Z,12.68
2023-04-22T03:22:46.209Z,11.90
2023-04-22T03:25:23.603Z,12.20
2023-04-22T03:28:08.628Z,12.43
2023-04-22T03:30:51.533Z,12.82
2023-04-22T03:33:42.238Z,11.65
2023-04-22T03:36:31.442Z,12.43
2023-04-22T03:39:08.688Z,13.07
2023-04-22T03:41:44.550Z,13.13
2023-04-22T03:44:22.964Z,12.05
2023-04-22T03:47:01.687Z,13.20
2023-04-22T03:49:43.588Z,13.23
2023-04-22T03:52:19.576Z,13.23
2023-04-22T03:55:03.259Z,12.95
2023-04-22T03:57:41.355Z,13.25
2023-04-22T04:00:20.000Z,13.38
2023-04-22T04:03:08.837Z,13.25
2023-04-22T04:05:45.405Z,12.88
2023-04-22T04:08:24.262Z,14.18
2023-04-22T04:11:01.140Z,13.68
2023-04-22T04:13:39.599Z,14.10
2023-04-22T04:16:27.832Z,13.57
2023-04-22T04:19:15.543Z,13.38
2023-04-22T04:21:51.936Z,13.65
2023-04-22T04:24:29.745Z,13.25
2023-04-22T04:27:14.130Z,13.85
2023-04-22T04:29:56.552Z,13.70
2023-04-22T04:32:46.097Z,13.55
2023-04-22T04:35:29.417Z,13.75
